Terminal Aerodrome Forecast
Issued by NWS

Home | Current Version | Previous Version | Text Only | Print | Product List | Glossary On
Versions: 1 2 3 4 5 6 7 8 9 10 11 12 13 14 15
000
FTUS43 KEAX 292300
TAFSTJ
TAF
KSTJ 292324Z 3000/3024 34020KT P6SM SKC
     FM300400 23004KT P6SM SKC
     FM301800 20012G20KT P6SM SKC=

USA.gov is the U.S. government's official web portal to all federal, state and local government web resources and services.